sensor_id;sensor_type;location;lat;lon;timestamp;P1;durP1;ratioP1;P2;durP2;ratioP2
66371;SDS011;53168;51.146;17.120;2023-07-13T00:02:12;6.94;;;6.94;;
66371;SDS011;53168;51.146;17.120;2023-07-13T00:04:46;6.83;;;6.83;;
66371;SDS011;53168;51.146;17.120;2023-07-13T00:07:16;7.49;;;7.49;;
66371;SDS011;53168;51.146;17.120;2023-07-13T00:09:48;7.23;;;7.23;;
66371;SDS011;53168;51.146;17.120;2023-07-13T00:12:26;7.10;;;7.09;;
66371;SDS011;53168;51.146;17.120;2023-07-13T00:15:26;7.25;;;7.25;;
66371;SDS011;53168;51.146;17.120;2023-07-13T00:17:59;7.28;;;7.28;;
66371;SDS011;53168;51.146;17.120;2023-07-13T00:20:44;7.38;;;7.38;;
66371;SDS011;53168;51.146;17.120;2023-07-13T00:23:14;7.94;;;7.94;;
66371;SDS011;53168;51.146;17.120;2023-07-13T00:25:45;8.70;;;8.70;;
66371;SDS011;53168;51.146;17.120;2023-07-13T00:28:18;8.72;;;8.72;;
66371;SDS011;53168;51.146;17.120;2023-07-13T00:30:49;7.98;;;7.98;;
66371;SDS011;53168;51.146;17.120;2023-07-13T00:33:18;7.18;;;7.18;;
66371;SDS011;53168;51.146;17.120;2023-07-13T00:35:48;7.17;;;7.17;;
66371;SDS011;53168;51.146;17.120;2023-07-13T00:38:18;7.98;;;7.98;;
66371;SDS011;53168;51.146;17.120;2023-07-13T00:40:48;8.19;;;8.19;;
66371;SDS011;53168;51.146;17.120;2023-07-13T00:43:19;7.66;;;7.66;;
66371;SDS011;53168;51.146;17.120;2023-07-13T00:48:57;7.85;;;7.85;;
66371;SDS011;53168;51.146;17.120;2023-07-13T00:51:43;8.59;;;8.59;;
66371;SDS011;53168;51.146;17.120;2023-07-13T00:55:18;8.23;;;8.23;;
66371;SDS011;53168;51.146;17.120;2023-07-13T01:03:06;8.06;;;8.06;;
66371;SDS011;53168;51.146;17.120;2023-07-13T01:05:39;8.09;;;8.09;;
66371;SDS011;53168;51.146;17.120;2023-07-13T01:08:11;7.62;;;7.62;;
66371;SDS011;53168;51.146;17.120;2023-07-13T01:11:36;7.19;;;7.19;;
66371;SDS011;53168;51.146;17.120;2023-07-13T01:14:10;7.56;;;7.56;;
66371;SDS011;53168;51.146;17.120;2023-07-13T01:16:44;7.95;;;7.95;;
66371;SDS011;53168;51.146;17.120;2023-07-13T01:19:24;7.65;;;7.65;;
66371;SDS011;53168;51.146;17.120;2023-07-13T01:22:06;7.97;;;7.97;;
66371;SDS011;53168;51.146;17.120;2023-07-13T01:24:42;8.35;;;8.35;;
66371;SDS011;53168;51.146;17.120;2023-07-13T01:27:16;8.55;;;8.55;;
66371;SDS011;53168;51.146;17.120;2023-07-13T01:29:52;8.70;;;8.70;;
66371;SDS011;53168;51.146;17.120;2023-07-13T01:32:29;10.30;;;10.30;;
66371;SDS011;53168;51.146;17.120;2023-07-13T01:35:00;9.07;;;9.07;;
66371;SDS011;53168;51.146;17.120;2023-07-13T01:37:30;9.45;;;9.45;;
66371;SDS011;53168;51.146;17.120;2023-07-13T01:40:00;8.95;;;8.95;;
66371;SDS011;53168;51.146;17.120;2023-07-13T01:42:31;8.43;;;8.43;;
66371;SDS011;53168;51.146;17.120;2023-07-13T01:45:02;8.48;;;8.48;;
66371;SDS011;53168;51.146;17.120;2023-07-13T01:47:34;8.55;;;8.55;;
66371;SDS011;53168;51.146;17.120;2023-07-13T01:50:05;8.45;;;8.45;;
66371;SDS011;53168;51.146;17.120;2023-07-13T01:52:36;9.17;;;9.17;;
66371;SDS011;53168;51.146;17.120;2023-07-13T01:55:07;9.04;;;9.04;;
66371;SDS011;53168;51.146;17.120;2023-07-13T01:57:37;8.67;;;8.67;;
66371;SDS011;53168;51.146;17.120;2023-07-13T02:00:09;8.94;;;8.93;;
66371;SDS011;53168;51.146;17.120;2023-07-13T02:02:53;9.24;;;9.24;;
66371;SDS011;53168;51.146;17.120;2023-07-13T02:05:23;9.10;;;9.10;;
66371;SDS011;53168;51.146;17.120;2023-07-13T02:07:55;9.32;;;9.32;;
66371;SDS011;53168;51.146;17.120;2023-07-13T02:10:25;8.50;;;8.50;;
66371;SDS011;53168;51.146;17.120;2023-07-13T02:12:55;8.74;;;8.74;;
66371;SDS011;53168;51.146;17.120;2023-07-13T02:15:25;8.44;;;8.43;;
66371;SDS011;53168;51.146;17.120;2023-07-13T02:17:54;8.63;;;8.63;;
66371;SDS011;53168;51.146;17.120;2023-07-13T02:20:25;9.17;;;9.17;;
66371;SDS011;53168;51.146;17.120;2023-07-13T02:22:55;8.54;;;8.54;;
66371;SDS011;53168;51.146;17.120;2023-07-13T02:25:25;8.41;;;8.41;;
66371;SDS011;53168;51.146;17.120;2023-07-13T02:27:55;8.47;;;8.46;;
66371;SDS011;53168;51.146;17.120;2023-07-13T02:30:25;9.29;;;9.29;;
66371;SDS011;53168;51.146;17.120;2023-07-13T02:32:57;9.10;;;9.10;;
66371;SDS011;53168;51.146;17.120;2023-07-13T02:35:27;8.98;;;8.98;;
66371;SDS011;53168;51.146;17.120;2023-07-13T02:37:59;8.93;;;8.92;;
66371;SDS011;53168;51.146;17.120;2023-07-13T02:40:31;9.86;;;9.86;;
66371;SDS011;53168;51.146;17.120;2023-07-13T02:43:02;10.81;;;10.78;;
66371;SDS011;53168;51.146;17.120;2023-07-13T02:45:33;10.05;;;10.04;;
66371;SDS011;53168;51.146;17.120;2023-07-13T02:48:04;9.50;;;9.49;;
66371;SDS011;53168;51.146;17.120;2023-07-13T02:50:36;9.04;;;9.04;;
66371;SDS011;53168;51.146;17.120;2023-07-13T02:53:05;9.66;;;9.66;;
66371;SDS011;53168;51.146;17.120;2023-07-13T02:55:35;10.22;;;10.22;;
66371;SDS011;53168;51.146;17.120;2023-07-13T02:58:05;9.81;;;9.81;;
66371;SDS011;53168;51.146;17.120;2023-07-13T03:00:37;9.49;;;9.49;;
66371;SDS011;53168;51.146;17.120;2023-07-13T03:03:08;9.24;;;9.24;;
66371;SDS011;53168;51.146;17.120;2023-07-13T03:05:40;9.32;;;9.32;;
66371;SDS011;53168;51.146;17.120;2023-07-13T03:08:17;9.63;;;9.63;;
66371;SDS011;53168;51.146;17.120;2023-07-13T03:10:47;9.81;;;9.81;;
66371;SDS011;53168;51.146;17.120;2023-07-13T03:13:26;9.33;;;9.31;;
66371;SDS011;53168;51.146;17.120;2023-07-13T03:15:57;9.52;;;9.52;;
66371;SDS011;53168;51.146;17.120;2023-07-13T03:18:27;9.77;;;9.77;;
66371;SDS011;53168;51.146;17.120;2023-07-13T03:21:00;9.45;;;9.44;;
66371;SDS011;53168;51.146;17.120;2023-07-13T03:23:31;9.37;;;9.37;;
66371;SDS011;53168;51.146;17.120;2023-07-13T03:26:02;9.34;;;9.34;;
66371;SDS011;53168;51.146;17.120;2023-07-13T03:28:35;9.28;;;9.28;;
66371;SDS011;53168;51.146;17.120;2023-07-13T03:31:06;9.79;;;9.79;;
66371;SDS011;53168;51.146;17.120;2023-07-13T03:33:41;9.70;;;9.70;;
66371;SDS011;53168;51.146;17.120;2023-07-13T03:36:16;9.54;;;9.54;;
66371;SDS011;53168;51.146;17.120;2023-07-13T03:38:55;9.34;;;9.34;;
66371;SDS011;53168;51.146;17.120;2023-07-13T03:41:37;9.86;;;9.86;;
66371;SDS011;53168;51.146;17.120;2023-07-13T03:44:07;10.34;;;10.34;;
66371;SDS011;53168;51.146;17.120;2023-07-13T03:46:37;10.89;;;10.89;;
66371;SDS011;53168;51.146;17.120;2023-07-13T03:49:06;9.97;;;9.97;;
66371;SDS011;53168;51.146;17.120;2023-07-13T03:51:36;12.35;;;12.31;;
66371;SDS011;53168;51.146;17.120;2023-07-13T03:54:08;31.74;;;29.91;;
66371;SDS011;53168;51.146;17.120;2023-07-13T03:56:37;15.86;;;15.02;;
66371;SDS011;53168;51.146;17.120;2023-07-13T03:59:08;9.35;;;9.35;;
66371;SDS011;53168;51.146;17.120;2023-07-13T04:01:37;9.38;;;9.38;;
66371;SDS011;53168;51.146;17.120;2023-07-13T04:04:07;9.53;;;9.53;;
66371;SDS011;53168;51.146;17.120;2023-07-13T04:06:37;9.24;;;9.24;;
66371;SDS011;53168;51.146;17.120;2023-07-13T04:09:08;8.86;;;8.86;;
66371;SDS011;53168;51.146;17.120;2023-07-13T04:11:38;9.21;;;9.21;;
66371;SDS011;53168;51.146;17.120;2023-07-13T04:14:08;9.15;;;9.14;;
66371;SDS011;53168;51.146;17.120;2023-07-13T04:16:38;9.26;;;9.26;;
66371;SDS011;53168;51.146;17.120;2023-07-13T04:19:08;8.25;;;8.25;;
66371;SDS011;53168;51.146;17.120;2023-07-13T04:21:42;8.03;;;8.03;;
66371;SDS011;53168;51.146;17.120;2023-07-13T04:24:14;7.94;;;7.94;;
66371;SDS011;53168;51.146;17.120;2023-07-13T04:27:02;8.87;;;8.87;;
66371;SDS011;53168;51.146;17.120;2023-07-13T04:29:34;8.44;;;8.44;;
66371;SDS011;53168;51.146;17.120;2023-07-13T04:32:20;8.88;;;8.88;;
66371;SDS011;53168;51.146;17.120;2023-07-13T04:34:50;7.95;;;7.95;;
66371;SDS011;53168;51.146;17.120;2023-07-13T04:37:24;7.75;;;7.75;;
66371;SDS011;53168;51.146;17.120;2023-07-13T04:39:54;6.96;;;6.96;;
66371;SDS011;53168;51.146;17.120;2023-07-13T04:42:24;6.58;;;6.58;;
66371;SDS011;53168;51.146;17.120;2023-07-13T04:44:55;5.57;;;5.57;;
66371;SDS011;53168;51.146;17.120;2023-07-13T04:47:25;5.14;;;5.14;;
66371;SDS011;53168;51.146;17.120;2023-07-13T04:49:57;4.92;;;4.92;;
66371;SDS011;53168;51.146;17.120;2023-07-13T04:52:27;5.04;;;5.04;;
66371;SDS011;53168;51.146;17.120;2023-07-13T04:54:57;4.32;;;4.32;;
66371;SDS011;53168;51.146;17.120;2023-07-13T04:57:27;4.10;;;4.10;;
66371;SDS011;53168;51.146;17.120;2023-07-13T04:59:57;4.10;;;4.10;;
66371;SDS011;53168;51.146;17.120;2023-07-13T05:02:28;4.03;;;4.03;;
66371;SDS011;53168;51.146;17.120;2023-07-13T05:04:59;4.10;;;4.10;;
66371;SDS011;53168;51.146;17.120;2023-07-13T05:07:31;4.38;;;4.38;;
66371;SDS011;53168;51.146;17.120;2023-07-13T05:10:00;5.04;;;5.04;;
66371;SDS011;53168;51.146;17.120;2023-07-13T05:12:31;5.23;;;5.23;;
66371;SDS011;53168;51.146;17.120;2023-07-13T05:15:00;5.26;;;5.26;;
66371;SDS011;53168;51.146;17.120;2023-07-13T05:17:33;4.84;;;4.84;;
66371;SDS011;53168;51.146;17.120;2023-07-13T05:20:08;5.22;;;5.22;;
66371;SDS011;53168;51.146;17.120;2023-07-13T05:22:42;5.06;;;5.06;;
66371;SDS011;53168;51.146;17.120;2023-07-13T05:25:14;4.83;;;4.83;;
66371;SDS011;53168;51.146;17.120;2023-07-13T05:27:46;5.08;;;5.08;;
66371;SDS011;53168;51.146;17.120;2023-07-13T05:30:16;4.76;;;4.76;;
66371;SDS011;53168;51.146;17.120;2023-07-13T05:32:46;4.61;;;4.61;;
66371;SDS011;53168;51.146;17.120;2023-07-13T05:35:16;4.47;;;4.47;;
66371;SDS011;53168;51.146;17.120;2023-07-13T05:37:46;4.88;;;4.88;;
66371;SDS011;53168;51.146;17.120;2023-07-13T05:40:16;4.88;;;4.88;;
66371;SDS011;53168;51.146;17.120;2023-07-13T05:42:46;4.43;;;4.43;;
66371;SDS011;53168;51.146;17.120;2023-07-13T05:45:15;4.39;;;4.39;;
66371;SDS011;53168;51.146;17.120;2023-07-13T05:47:45;4.34;;;4.34;;
66371;SDS011;53168;51.146;17.120;2023-07-13T05:50:16;4.10;;;4.10;;
66371;SDS011;53168;51.146;17.120;2023-07-13T05:52:45;4.28;;;4.28;;
66371;SDS011;53168;51.146;17.120;2023-07-13T05:55:18;4.47;;;4.47;;
66371;SDS011;53168;51.146;17.120;2023-07-13T05:57:48;4.31;;;4.31;;
66371;SDS011;53168;51.146;17.120;2023-07-13T06:00:33;4.15;;;4.15;;
66371;SDS011;53168;51.146;17.120;2023-07-13T06:03:03;4.10;;;4.10;;
66371;SDS011;53168;51.146;17.120;2023-07-13T06:05:34;4.29;;;4.29;;
66371;SDS011;53168;51.146;17.120;2023-07-13T06:08:07;4.32;;;4.32;;
66371;SDS011;53168;51.146;17.120;2023-07-13T06:10:40;4.17;;;4.17;;
66371;SDS011;53168;51.146;17.120;2023-07-13T06:13:10;4.05;;;4.05;;
66371;SDS011;53168;51.146;17.120;2023-07-13T06:15:48;4.26;;;4.26;;
66371;SDS011;53168;51.146;17.120;2023-07-13T06:18:40;4.25;;;4.25;;
66371;SDS011;53168;51.146;17.120;2023-07-13T06:21:16;3.95;;;3.95;;
66371;SDS011;53168;51.146;17.120;2023-07-13T06:23:51;3.97;;;3.97;;
66371;SDS011;53168;51.146;17.120;2023-07-13T06:26:29;4.34;;;4.34;;
66371;SDS011;53168;51.146;17.120;2023-07-13T06:28:59;3.95;;;3.95;;
66371;SDS011;53168;51.146;17.120;2023-07-13T06:31:29;3.99;;;3.99;;
66371;SDS011;53168;51.146;17.120;2023-07-13T06:34:00;3.79;;;3.79;;
66371;SDS011;53168;51.146;17.120;2023-07-13T06:36:29;3.77;;;3.77;;
66371;SDS011;53168;51.146;17.120;2023-07-13T06:38:59;3.61;;;3.61;;
66371;SDS011;53168;51.146;17.120;2023-07-13T06:41:29;3.75;;;3.75;;
66371;SDS011;53168;51.146;17.120;2023-07-13T06:43:59;3.19;;;3.19;;
66371;SDS011;53168;51.146;17.120;2023-07-13T06:46:29;3.11;;;3.11;;
66371;SDS011;53168;51.146;17.120;2023-07-13T06:48:59;3.54;;;3.54;;
66371;SDS011;53168;51.146;17.120;2023-07-13T06:51:29;3.65;;;3.65;;
66371;SDS011;53168;51.146;17.120;2023-07-13T06:53:59;3.24;;;3.24;;
66371;SDS011;53168;51.146;17.120;2023-07-13T06:56:28;3.63;;;3.63;;
66371;SDS011;53168;51.146;17.120;2023-07-13T06:58:59;3.35;;;3.35;;
66371;SDS011;53168;51.146;17.120;2023-07-13T07:01:29;3.71;;;3.71;;
66371;SDS011;53168;51.146;17.120;2023-07-13T07:03:58;4.18;;;4.18;;
66371;SDS011;53168;51.146;17.120;2023-07-13T07:06:28;4.61;;;4.61;;
66371;SDS011;53168;51.146;17.120;2023-07-13T07:08:58;4.40;;;4.40;;
66371;SDS011;53168;51.146;17.120;2023-07-13T07:11:29;4.20;;;4.20;;
66371;SDS011;53168;51.146;17.120;2023-07-13T07:13:58;4.97;;;4.97;;
66371;SDS011;53168;51.146;17.120;2023-07-13T07:16:28;5.43;;;5.43;;
66371;SDS011;53168;51.146;17.120;2023-07-13T07:18:58;5.56;;;5.56;;
66371;SDS011;53168;51.146;17.120;2023-07-13T07:21:28;4.31;;;4.31;;
66371;SDS011;53168;51.146;17.120;2023-07-13T07:23:59;4.68;;;4.68;;
66371;SDS011;53168;51.146;17.120;2023-07-13T07:26:31;4.48;;;4.48;;
66371;SDS011;53168;51.146;17.120;2023-07-13T07:29:21;5.34;;;5.34;;
66371;SDS011;53168;51.146;17.120;2023-07-13T07:31:56;5.32;;;5.32;;
66371;SDS011;53168;51.146;17.120;2023-07-13T07:34:30;4.89;;;4.89;;
66371;SDS011;53168;51.146;17.120;2023-07-13T07:37:00;5.53;;;5.53;;
66371;SDS011;53168;51.146;17.120;2023-07-13T07:39:34;5.87;;;5.87;;
66371;SDS011;53168;51.146;17.120;2023-07-13T07:42:11;6.28;;;6.28;;
66371;SDS011;53168;51.146;17.120;2023-07-13T07:44:41;6.78;;;6.78;;
66371;SDS011;53168;51.146;17.120;2023-07-13T07:47:12;6.06;;;6.06;;
66371;SDS011;53168;51.146;17.120;2023-07-13T07:49:47;6.30;;;6.30;;
66371;SDS011;53168;51.146;17.120;2023-07-13T07:52:19;6.09;;;6.09;;
66371;SDS011;53168;51.146;17.120;2023-07-13T07:54:55;5.88;;;5.88;;
66371;SDS011;53168;51.146;17.120;2023-07-13T07:57:49;5.83;;;5.83;;
66371;SDS011;53168;51.146;17.120;2023-07-13T08:00:39;6.35;;;6.35;;
66371;SDS011;53168;51.146;17.120;2023-07-13T08:03:12;6.54;;;6.54;;
66371;SDS011;53168;51.146;17.120;2023-07-13T08:05:45;6.52;;;6.52;;
66371;SDS011;53168;51.146;17.120;2023-07-13T08:12:05;5.73;;;5.73;;
66371;SDS011;53168;51.146;17.120;2023-07-13T08:14:50;5.43;;;5.43;;
66371;SDS011;53168;51.146;17.120;2023-07-13T08:17:26;5.82;;;5.82;;
66371;SDS011;53168;51.146;17.120;2023-07-13T08:20:02;5.58;;;5.58;;
66371;SDS011;53168;51.146;17.120;2023-07-13T08:22:41;6.03;;;6.03;;
66371;SDS011;53168;51.146;17.120;2023-07-13T08:28:01;4.23;;;4.23;;
66371;SDS011;53168;51.146;17.120;2023-07-13T08:30:44;4.30;;;4.30;;
66371;SDS011;53168;51.146;17.120;2023-07-13T08:33:16;4.11;;;4.11;;
66371;SDS011;53168;51.146;17.120;2023-07-13T08:35:57;4.28;;;4.28;;
66371;SDS011;53168;51.146;17.120;2023-07-13T08:38:31;4.85;;;4.85;;
66371;SDS011;53168;51.146;17.120;2023-07-13T08:41:11;4.51;;;4.51;;
66371;SDS011;53168;51.146;17.120;2023-07-13T08:43:51;4.94;;;4.94;;
66371;SDS011;53168;51.146;17.120;2023-07-13T08:46:33;4.40;;;4.40;;
66371;SDS011;53168;51.146;17.120;2023-07-13T08:49:10;4.55;;;4.55;;
66371;SDS011;53168;51.146;17.120;2023-07-13T08:51:53;4.85;;;4.85;;
66371;SDS011;53168;51.146;17.120;2023-07-13T08:54:30;5.37;;;5.36;;
66371;SDS011;53168;51.146;17.120;2023-07-13T08:57:11;4.80;;;4.80;;
66371;SDS011;53168;51.146;17.120;2023-07-13T08:59:47;5.47;;;5.47;;
66371;SDS011;53168;51.146;17.120;2023-07-13T09:02:23;5.37;;;5.37;;
66371;SDS011;53168;51.146;17.120;2023-07-13T09:05:10;5.41;;;5.41;;
66371;SDS011;53168;51.146;17.120;2023-07-13T09:07:55;4.52;;;4.52;;
66371;SDS011;53168;51.146;17.120;2023-07-13T09:10:45;5.12;;;5.12;;
66371;SDS011;53168;51.146;17.120;2023-07-13T09:13:27;4.93;;;4.93;;
66371;SDS011;53168;51.146;17.120;2023-07-13T09:16:12;5.31;;;5.31;;
66371;SDS011;53168;51.146;17.120;2023-07-13T09:18:44;5.24;;;5.24;;
66371;SDS011;53168;51.146;17.120;2023-07-13T09:21:22;5.38;;;5.38;;
66371;SDS011;53168;51.146;17.120;2023-07-13T09:23:59;5.28;;;5.28;;
66371;SDS011;53168;51.146;17.120;2023-07-13T09:27:00;5.43;;;5.43;;
66371;SDS011;53168;51.146;17.120;2023-07-13T09:29:45;4.95;;;4.95;;
66371;SDS011;53168;51.146;17.120;2023-07-13T09:32:24;5.29;;;5.29;;
66371;SDS011;53168;51.146;17.120;2023-07-13T09:34:57;4.71;;;4.71;;
66371;SDS011;53168;51.146;17.120;2023-07-13T09:37:30;4.93;;;4.93;;
66371;SDS011;53168;51.146;17.120;2023-07-13T09:40:01;4.98;;;4.98;;
66371;SDS011;53168;51.146;17.120;2023-07-13T09:42:41;5.25;;;5.25;;
66371;SDS011;53168;51.146;17.120;2023-07-13T09:45:11;5.36;;;5.36;;
66371;SDS011;53168;51.146;17.120;2023-07-13T09:48:03;6.23;;;6.23;;
66371;SDS011;53168;51.146;17.120;2023-07-13T09:50:38;5.45;;;5.45;;
66371;SDS011;53168;51.146;17.120;2023-07-13T09:53:13;4.82;;;4.82;;
66371;SDS011;53168;51.146;17.120;2023-07-13T09:55:45;5.01;;;5.01;;
66371;SDS011;53168;51.146;17.120;2023-07-13T09:58:22;4.56;;;4.56;;
66371;SDS011;53168;51.146;17.120;2023-07-13T10:00:59;5.39;;;5.39;;
66371;SDS011;53168;51.146;17.120;2023-07-13T10:03:37;5.27;;;5.27;;
66371;SDS011;53168;51.146;17.120;2023-07-13T10:06:19;5.25;;;5.25;;
66371;SDS011;53168;51.146;17.120;2023-07-13T10:08:59;4.33;;;4.33;;
66371;SDS011;53168;51.146;17.120;2023-07-13T10:11:29;5.27;;;5.27;;
66371;SDS011;53168;51.146;17.120;2023-07-13T10:14:10;4.78;;;4.78;;
66371;SDS011;53168;51.146;17.120;2023-07-13T10:16:45;4.19;;;4.19;;
66371;SDS011;53168;51.146;17.120;2023-07-13T10:19:44;4.56;;;4.56;;
66371;SDS011;53168;51.146;17.120;2023-07-13T10:22:22;4.35;;;4.35;;
66371;SDS011;53168;51.146;17.120;2023-07-13T10:25:01;4.61;;;4.61;;
66371;SDS011;53168;51.146;17.120;2023-07-13T10:27:45;4.83;;;4.83;;
66371;SDS011;53168;51.146;17.120;2023-07-13T10:30:21;4.38;;;4.38;;
66371;SDS011;53168;51.146;17.120;2023-07-13T10:32:58;4.10;;;4.10;;
66371;SDS011;53168;51.146;17.120;2023-07-13T10:35:31;3.83;;;3.83;;
66371;SDS011;53168;51.146;17.120;2023-07-13T10:38:10;3.56;;;3.56;;
66371;SDS011;53168;51.146;17.120;2023-07-13T10:40:47;4.03;;;4.03;;
66371;SDS011;53168;51.146;17.120;2023-07-13T10:43:28;3.63;;;3.63;;
66371;SDS011;53168;51.146;17.120;2023-07-13T10:46:05;3.70;;;3.70;;
66371;SDS011;53168;51.146;17.120;2023-07-13T10:48:42;2.82;;;2.82;;
66371;SDS011;53168;51.146;17.120;2023-07-13T10:51:18;2.91;;;2.91;;
66371;SDS011;53168;51.146;17.120;2023-07-13T10:56:50;2.95;;;2.95;;
66371;SDS011;53168;51.146;17.120;2023-07-13T10:59:36;3.26;;;3.26;;
66371;SDS011;53168;51.146;17.120;2023-07-13T11:02:15;2.62;;;2.62;;
66371;SDS011;53168;51.146;17.120;2023-07-13T11:05:17;2.78;;;2.78;;
66371;SDS011;53168;51.146;17.120;2023-07-13T11:08:03;3.38;;;3.38;;
66371;SDS011;53168;51.146;17.120;2023-07-13T11:10:49;3.14;;;3.14;;
66371;SDS011;53168;51.146;17.120;2023-07-13T11:13:38;2.74;;;2.74;;
66371;SDS011;53168;51.146;17.120;2023-07-13T11:16:41;3.15;;;3.15;;
66371;SDS011;53168;51.146;17.120;2023-07-13T11:19:26;3.21;;;3.21;;
66371;SDS011;53168;51.146;17.120;2023-07-13T11:22:16;2.87;;;2.87;;
66371;SDS011;53168;51.146;17.120;2023-07-13T11:25:00;3.19;;;3.19;;
66371;SDS011;53168;51.146;17.120;2023-07-13T11:28:03;3.17;;;3.17;;
66371;SDS011;53168;51.146;17.120;2023-07-13T11:30:46;2.83;;;2.83;;
66371;SDS011;53168;51.146;17.120;2023-07-13T11:36:30;2.98;;;2.98;;
66371;SDS011;53168;51.146;17.120;2023-07-13T11:39:17;3.02;;;3.02;;
66371;SDS011;53168;51.146;17.120;2023-07-13T11:42:01;2.99;;;2.99;;
66371;SDS011;53168;51.146;17.120;2023-07-13T11:44:43;2.90;;;2.90;;
66371;SDS011;53168;51.146;17.120;2023-07-13T11:47:35;3.37;;;3.37;;
66371;SDS011;53168;51.146;17.120;2023-07-13T11:50:19;3.03;;;3.03;;
66371;SDS011;53168;51.146;17.120;2023-07-13T11:53:20;2.88;;;2.88;;
66371;SDS011;53168;51.146;17.120;2023-07-13T11:56:17;3.16;;;3.16;;
66371;SDS011;53168;51.146;17.120;2023-07-13T11:59:02;3.48;;;3.48;;
66371;SDS011;53168;51.146;17.120;2023-07-13T12:01:42;3.31;;;3.31;;
66371;SDS011;53168;51.146;17.120;2023-07-13T12:04:23;3.15;;;3.15;;
66371;SDS011;53168;51.146;17.120;2023-07-13T12:07:05;3.20;;;3.20;;
66371;SDS011;53168;51.146;17.120;2023-07-13T12:09:54;3.52;;;3.52;;
66371;SDS011;53168;51.146;17.120;2023-07-13T12:12:29;2.78;;;2.78;;
66371;SDS011;53168;51.146;17.120;2023-07-13T12:14:59;3.44;;;3.44;;
66371;SDS011;53168;51.146;17.120;2023-07-13T12:17:53;3.18;;;3.18;;
66371;SDS011;53168;51.146;17.120;2023-07-13T12:20:35;3.25;;;3.25;;
66371;SDS011;53168;51.146;17.120;2023-07-13T12:23:35;3.05;;;3.05;;
66371;SDS011;53168;51.146;17.120;2023-07-13T12:30:27;2.94;;;2.94;;
66371;SDS011;53168;51.146;17.120;2023-07-13T12:36:37;2.41;;;2.41;;
66371;SDS011;53168;51.146;17.120;2023-07-13T12:39:46;2.33;;;2.33;;
66371;SDS011;53168;51.146;17.120;2023-07-13T12:42:37;2.81;;;2.81;;
66371;SDS011;53168;51.146;17.120;2023-07-13T12:48:12;2.66;;;2.66;;
66371;SDS011;53168;51.146;17.120;2023-07-13T12:51:14;2.77;;;2.77;;
66371;SDS011;53168;51.146;17.120;2023-07-13T12:53:51;2.64;;;2.64;;
66371;SDS011;53168;51.146;17.120;2023-07-13T12:57:02;2.66;;;2.66;;
66371;SDS011;53168;51.146;17.120;2023-07-13T12:59:45;2.29;;;2.29;;
66371;SDS011;53168;51.146;17.120;2023-07-13T13:02:26;2.80;;;2.80;;
66371;SDS011;53168;51.146;17.120;2023-07-13T13:05:14;2.52;;;2.52;;
66371;SDS011;53168;51.146;17.120;2023-07-13T13:07:48;2.46;;;2.46;;
66371;SDS011;53168;51.146;17.120;2023-07-13T13:10:30;2.48;;;2.48;;
66371;SDS011;53168;51.146;17.120;2023-07-13T13:13:02;2.44;;;2.44;;
66371;SDS011;53168;51.146;17.120;2023-07-13T13:15:31;2.47;;;2.47;;
66371;SDS011;53168;51.146;17.120;2023-07-13T13:18:16;2.35;;;2.35;;
66371;SDS011;53168;51.146;17.120;2023-07-13T13:21:03;2.37;;;2.37;;
66371;SDS011;53168;51.146;17.120;2023-07-13T13:23:52;2.15;;;2.15;;
66371;SDS011;53168;51.146;17.120;2023-07-13T13:26:22;1.95;;;1.95;;
66371;SDS011;53168;51.146;17.120;2023-07-13T13:29:10;2.21;;;2.21;;
66371;SDS011;53168;51.146;17.120;2023-07-13T13:31:58;2.41;;;2.41;;
66371;SDS011;53168;51.146;17.120;2023-07-13T13:34:28;2.35;;;2.35;;
66371;SDS011;53168;51.146;17.120;2023-07-13T13:37:15;2.08;;;2.08;;
66371;SDS011;53168;51.146;17.120;2023-07-13T13:53:52;2.06;;;2.06;;
66371;SDS011;53168;51.146;17.120;2023-07-13T13:56:40;2.16;;;2.16;;
66371;SDS011;53168;51.146;17.120;2023-07-13T13:59:46;1.81;;;1.81;;
66371;SDS011;53168;51.146;17.120;2023-07-13T14:02:28;2.10;;;2.10;;
66371;SDS011;53168;51.146;17.120;2023-07-13T14:05:11;2.26;;;2.26;;
66371;SDS011;53168;51.146;17.120;2023-07-13T14:12:00;2.01;;;2.01;;
66371;SDS011;53168;51.146;17.120;2023-07-13T14:14:43;1.82;;;1.82;;
66371;SDS011;53168;51.146;17.120;2023-07-13T14:17:42;2.13;;;2.13;;
66371;SDS011;53168;51.146;17.120;2023-07-13T14:20:41;2.22;;;2.22;;
66371;SDS011;53168;51.146;17.120;2023-07-13T14:28:19;2.05;;;2.05;;
66371;SDS011;53168;51.146;17.120;2023-07-13T14:32:21;2.39;;;2.39;;
66371;SDS011;53168;51.146;17.120;2023-07-13T14:40:46;2.14;;;2.14;;
66371;SDS011;53168;51.146;17.120;2023-07-13T14:43:23;2.00;;;2.00;;
66371;SDS011;53168;51.146;17.120;2023-07-13T14:45:58;1.95;;;1.95;;
66371;SDS011;53168;51.146;17.120;2023-07-13T14:48:36;1.89;;;1.89;;
66371;SDS011;53168;51.146;17.120;2023-07-13T14:51:10;2.05;;;2.05;;
66371;SDS011;53168;51.146;17.120;2023-07-13T14:53:44;1.98;;;1.98;;
66371;SDS011;53168;51.146;17.120;2023-07-13T14:56:19;1.97;;;1.97;;
66371;SDS011;53168;51.146;17.120;2023-07-13T14:58:56;2.21;;;2.21;;
66371;SDS011;53168;51.146;17.120;2023-07-13T15:01:29;2.49;;;2.49;;
66371;SDS011;53168;51.146;17.120;2023-07-13T15:04:07;2.54;;;2.54;;
66371;SDS011;53168;51.146;17.120;2023-07-13T15:06:56;2.52;;;2.52;;
66371;SDS011;53168;51.146;17.120;2023-07-13T15:09:37;2.57;;;2.57;;
66371;SDS011;53168;51.146;17.120;2023-07-13T15:12:13;2.41;;;2.41;;
66371;SDS011;53168;51.146;17.120;2023-07-13T15:18:10;3.10;;;3.10;;
66371;SDS011;53168;51.146;17.120;2023-07-13T15:21:13;2.67;;;2.67;;
66371;SDS011;53168;51.146;17.120;2023-07-13T15:24:00;2.81;;;2.81;;
66371;SDS011;53168;51.146;17.120;2023-07-13T15:35:21;2.38;;;2.38;;
66371;SDS011;53168;51.146;17.120;2023-07-13T15:38:15;2.72;;;2.72;;
66371;SDS011;53168;51.146;17.120;2023-07-13T15:45:29;2.55;;;2.55;;
66371;SDS011;53168;51.146;17.120;2023-07-13T15:48:54;2.94;;;2.94;;
66371;SDS011;53168;51.146;17.120;2023-07-13T15:51:53;2.85;;;2.85;;
66371;SDS011;53168;51.146;17.120;2023-07-13T15:58:19;2.78;;;2.78;;
66371;SDS011;53168;51.146;17.120;2023-07-13T16:01:55;2.92;;;2.92;;
66371;SDS011;53168;51.146;17.120;2023-07-13T16:04:35;2.83;;;2.83;;
66371;SDS011;53168;51.146;17.120;2023-07-13T16:07:18;2.62;;;2.62;;
66371;SDS011;53168;51.146;17.120;2023-07-13T16:09:55;2.90;;;2.90;;
66371;SDS011;53168;51.146;17.120;2023-07-13T16:16:36;3.01;;;3.01;;
66371;SDS011;53168;51.146;17.120;2023-07-13T16:19:10;2.66;;;2.66;;
66371;SDS011;53168;51.146;17.120;2023-07-13T16:25:33;2.87;;;2.87;;
66371;SDS011;53168;51.146;17.120;2023-07-13T16:32:34;2.87;;;2.87;;
66371;SDS011;53168;51.146;17.120;2023-07-13T16:35:10;2.99;;;2.99;;
66371;SDS011;53168;51.146;17.120;2023-07-13T16:37:52;3.28;;;3.28;;
66371;SDS011;53168;51.146;17.120;2023-07-13T16:40:39;3.55;;;3.55;;
66371;SDS011;53168;51.146;17.120;2023-07-13T16:43:22;3.59;;;3.59;;
66371;SDS011;53168;51.146;17.120;2023-07-13T16:46:11;3.31;;;3.31;;
66371;SDS011;53168;51.146;17.120;2023-07-13T16:48:55;3.63;;;3.63;;
66371;SDS011;53168;51.146;17.120;2023-07-13T16:51:46;3.72;;;3.72;;
66371;SDS011;53168;51.146;17.120;2023-07-13T16:54:32;3.53;;;3.53;;
66371;SDS011;53168;51.146;17.120;2023-07-13T17:00:23;3.39;;;3.39;;
66371;SDS011;53168;51.146;17.120;2023-07-13T17:03:22;3.80;;;3.80;;
66371;SDS011;53168;51.146;17.120;2023-07-13T17:06:23;3.76;;;3.76;;
66371;SDS011;53168;51.146;17.120;2023-07-13T17:09:04;4.08;;;4.08;;
66371;SDS011;53168;51.146;17.120;2023-07-13T17:11:43;3.80;;;3.80;;
66371;SDS011;53168;51.146;17.120;2023-07-13T17:14:19;3.74;;;3.74;;